createdAt,value
2023-08-15T00:04:38.258Z,83.45
2023-08-15T00:09:41.468Z,83.86
2023-08-15T00:14:44.573Z,82.32
2023-08-15T00:19:47.689Z,81.39
2023-08-15T00:24:50.795Z,83.87
2023-08-15T00:29:53.807Z,82.66
2023-08-15T00:34:56.810Z,81.02
2023-08-15T00:40:01.164Z,82.72
2023-08-15T00:45:04.465Z,84.39
2023-08-15T00:50:10.537Z,84.69
2023-08-15T00:55:13.694Z,84.00
2023-08-15T01:00:17.292Z,85.07
2023-08-15T01:05:21.617Z,85.07
2023-08-15T01:10:24.816Z,85.71
2023-08-15T01:15:33.280Z,85.04
2023-08-15T01:20:38.502Z,83.86
2023-08-15T01:25:43.981Z,84.70
2023-08-15T01:30:52.105Z,83.93
2023-08-15T01:36:04.257Z,83.15
2023-08-15T01:41:13.073Z,83.25
2023-08-15T01:46:16.487Z,84.55
2023-08-15T01:51:19.913Z,84.78
2023-08-15T01:56:22.979Z,83.62
2023-08-15T02:01:26.468Z,84.28
2023-08-15T02:06:29.641Z,84.15
2023-08-15T02:11:32.740Z,84.95
2023-08-15T02:16:35.855Z,86.33
2023-08-15T02:21:39.189Z,86.58
2023-08-15T02:26:42.481Z,86.82
2023-08-15T02:31:48.665Z,86.77
2023-08-15T02:36:51.774Z,84.72
2023-08-15T02:41:54.810Z,84.57
2023-08-15T02:46:58.145Z,85.30
2023-08-15T02:52:01.219Z,85.45
2023-08-15T02:57:04.426Z,85.88
2023-08-15T03:02:07.403Z,86.12
2023-08-15T03:07:10.736Z,86.35
2023-08-15T03:12:13.947Z,86.18
2023-08-15T03:17:20.603Z,84.88
2023-08-15T03:22:24.160Z,84.59
2023-08-15T03:27:27.168Z,84.56
2023-08-15T03:32:30.196Z,85.39
2023-08-15T03:37:33.182Z,85.46
2023-08-15T03:42:36.187Z,86.24
2023-08-15T03:47:39.222Z,85.95
2023-08-15T03:52:42.408Z,86.05
2023-08-15T03:57:45.510Z,85.42
2023-08-15T04:02:48.802Z,84.33
2023-08-15T04:07:51.938Z,84.11
2023-08-15T04:12:54.944Z,85.40
2023-08-15T04:17:58.123Z,85.81
2023-08-15T04:23:01.265Z,85.12
2023-08-15T04:28:05.383Z,84.59
2023-08-15T04:33:08.649Z,84.20
2023-08-15T04:38:12.131Z,83.86
2023-08-15T04:43:15.234Z,83.55
2023-08-15T04:48:18.341Z,83.21
2023-08-15T04:53:21.341Z,82.83
2023-08-15T04:58:24.357Z,82.49
2023-08-15T05:03:27.367Z,82.36
2023-08-15T05:08:30.575Z,77.47
2023-08-15T05:13:33.686Z,72.88
2023-08-15T05:18:36.810Z,71.19
2023-08-15T05:23:39.915Z,70.48
2023-08-15T05:28:44.883Z,70.06
2023-08-15T05:33:49.194Z,69.48
2023-08-15T05:38:52.411Z,69.13
2023-08-15T05:43:55.416Z,64.66
2023-08-15T05:48:58.518Z,64.67
2023-08-15T05:54:01.735Z,63.35
2023-08-15T05:59:04.954Z,63.75
2023-08-15T06:04:08.113Z,61.23
2023-08-15T06:09:11.268Z,58.34
2023-08-15T06:14:14.474Z,56.54
2023-08-15T06:19:18.944Z,54.26
2023-08-15T06:24:22.083Z,51.78
2023-08-15T06:29:26.731Z,46.63
2023-08-15T06:34:30.038Z,42.07
2023-08-15T06:39:33.100Z,39.85
2023-08-15T06:44:36.205Z,37.28
2023-08-15T06:49:39.392Z,35.44
2023-08-15T06:54:42.740Z,34.02
2023-08-15T06:59:45.883Z,33.12
2023-08-15T07:04:50.429Z,32.10
2023-08-15T07:09:53.794Z,31.92
2023-08-15T07:14:57.214Z,31.64
2023-08-15T07:20:00.218Z,31.22
2023-08-15T07:25:03.429Z,30.97
2023-08-15T07:30:07.934Z,30.18
2023-08-15T07:35:11.078Z,29.31
2023-08-15T07:40:21.458Z,28.61
2023-08-15T07:45:24.408Z,28.49
2023-08-15T07:50:29.566Z,27.93
2023-08-15T07:55:34.000Z,27.60
2023-08-15T08:00:38.202Z,26.83
2023-08-15T08:05:41.469Z,26.67
2023-08-15T08:10:44.626Z,26.74
2023-08-15T08:15:54.216Z,26.36
2023-08-15T08:21:07.443Z,26.13
2023-08-15T08:26:13.925Z,25.40
2023-08-15T08:31:19.493Z,25.86
2023-08-15T08:36:23.408Z,26.15
2023-08-15T08:41:27.237Z,26.23
2023-08-15T08:46:37.410Z,26.23
2023-08-15T08:51:42.158Z,25.48
2023-08-15T08:56:48.549Z,26.62
2023-08-15T09:01:53.498Z,28.44
2023-08-15T09:06:56.719Z,30.47
2023-08-15T09:11:59.919Z,31.93
2023-08-15T09:17:03.164Z,32.57
2023-08-15T09:22:06.345Z,33.25
2023-08-15T09:27:10.372Z,34.05
2023-08-15T09:32:13.506Z,34.17
2023-08-15T09:37:16.913Z,33.79
2023-08-15T09:42:21.915Z,33.39
2023-08-15T09:47:27.039Z,33.24
2023-08-15T09:52:30.629Z,32.33
2023-08-15T09:57:33.841Z,31.12
2023-08-15T10:02:47.135Z,30.30
2023-08-15T10:07:52.681Z,28.58
2023-08-15T10:12:56.560Z,28.86
2023-08-15T10:18:01.000Z,28.07
2023-08-15T10:23:09.163Z,27.14
2023-08-15T10:28:15.738Z,27.18
2023-08-15T10:33:31.048Z,27.89
2023-08-15T10:38:41.947Z,27.65
2023-08-15T10:43:55.992Z,28.03
2023-08-15T10:49:12.282Z,28.45
2023-08-15T10:54:18.390Z,27.62
2023-08-15T10:59:22.012Z,27.63
2023-08-15T11:04:31.371Z,27.40
2023-08-15T11:09:38.670Z,27.18
2023-08-15T11:14:42.404Z,27.51
2023-08-15T11:19:47.456Z,27.22
2023-08-15T11:24:55.166Z,26.79
2023-08-15T11:29:59.421Z,26.55
2023-08-15T11:35:04.568Z,26.06
2023-08-15T11:40:08.598Z,25.88
2023-08-15T11:45:13.194Z,25.89
2023-08-15T11:50:22.326Z,25.94
2023-08-15T11:55:34.730Z,26.50
2023-08-15T12:00:41.207Z,26.68
2023-08-15T12:05:48.415Z,27.09
2023-08-15T12:10:54.837Z,27.61
2023-08-15T12:15:58.346Z,28.39
2023-08-15T12:21:02.942Z,28.21
2023-08-15T12:26:07.511Z,27.91
2023-08-15T12:31:10.648Z,28.78
2023-08-15T12:36:16.148Z,28.51
2023-08-15T12:41:20.721Z,28.90
2023-08-15T12:46:28.344Z,29.44
2023-08-15T12:51:32.689Z,29.30
2023-08-15T12:56:36.296Z,29.56
2023-08-15T13:01:41.135Z,29.66
2023-08-15T13:06:46.098Z,29.84
2023-08-15T13:11:49.613Z,29.72
2023-08-15T13:16:52.880Z,29.68
2023-08-15T13:21:56.554Z,29.83
2023-08-15T13:27:00.175Z,29.36
2023-08-15T13:32:03.393Z,29.61
2023-08-15T13:37:07.210Z,29.43
2023-08-15T13:42:16.973Z,29.44
2023-08-15T13:47:27.668Z,29.45
2023-08-15T13:52:31.179Z,28.97
2023-08-15T13:57:35.005Z,28.66
2023-08-15T14:02:38.878Z,28.23
2023-08-15T14:07:42.248Z,27.98
2023-08-15T14:12:47.610Z,27.69
2023-08-15T14:17:59.506Z,27.75
2023-08-15T14:23:05.296Z,27.82
2023-08-15T14:28:08.613Z,28.04
2023-08-15T14:33:13.398Z,28.09
2023-08-15T14:38:17.697Z,27.65
2023-08-15T14:43:23.671Z,27.89
2023-08-15T14:48:27.705Z,27.97
2023-08-15T14:53:32.241Z,28.26
2023-08-15T14:58:37.335Z,28.61
2023-08-15T15:03:43.329Z,29.19
2023-08-15T15:08:52.642Z,30.32
2023-08-15T15:14:01.478Z,30.84
2023-08-15T15:19:05.239Z,31.25
2023-08-15T15:24:09.032Z,31.45
2023-08-15T15:29:14.931Z,31.12
2023-08-15T15:34:18.485Z,31.28
2023-08-15T15:39:21.737Z,31.61
2023-08-15T15:44:31.212Z,31.84
2023-08-15T15:49:34.510Z,32.11
2023-08-15T15:54:38.228Z,32.27
2023-08-15T15:59:41.443Z,32.44
2023-08-15T16:04:48.655Z,32.64
2023-08-15T16:09:51.959Z,32.68
2023-08-15T16:14:55.070Z,32.54
2023-08-15T16:19:58.172Z,32.76
2023-08-15T16:25:01.806Z,33.26
2023-08-15T16:30:15.471Z,33.92
2023-08-15T16:35:21.221Z,34.34
2023-08-15T16:40:24.437Z,34.53
2023-08-15T16:45:27.557Z,34.79
2023-08-15T16:50:30.764Z,35.16
2023-08-15T16:55:34.904Z,35.83
2023-08-15T17:00:38.542Z,36.25
2023-08-15T17:05:46.227Z,36.76
2023-08-15T17:10:50.058Z,37.16
2023-08-15T17:15:53.167Z,37.55
2023-08-15T17:20:56.391Z,38.01
2023-08-15T17:25:59.788Z,38.61
2023-08-15T17:31:03.051Z,39.12
2023-08-15T17:36:06.742Z,39.55
2023-08-15T17:41:10.035Z,39.82
2023-08-15T17:46:14.604Z,40.52
2023-08-15T17:51:20.470Z,41.21
2023-08-15T17:56:23.824Z,41.75
2023-08-15T18:01:28.971Z,42.49
2023-08-15T18:06:33.338Z,42.88
2023-08-15T18:11:36.791Z,43.36
2023-08-15T18:16:40.627Z,44.14
2023-08-15T18:21:44.546Z,44.83
2023-08-15T18:26:48.104Z,45.44
2023-08-15T18:31:51.428Z,45.84
2023-08-15T18:36:54.702Z,46.24
2023-08-15T18:41:57.917Z,46.47
2023-08-15T18:47:03.655Z,47.03
2023-08-15T18:52:07.094Z,47.46
2023-08-15T18:57:10.417Z,47.76
2023-08-15T19:02:13.614Z,48.44
2023-08-15T19:07:19.272Z,49.14
2023-08-15T19:12:23.508Z,49.76
2023-08-15T19:17:27.371Z,50.26
2023-08-15T19:22:30.974Z,50.39
2023-08-15T19:27:34.485Z,50.78
2023-08-15T19:32:37.753Z,51.69
2023-08-15T19:37:41.130Z,52.29
2023-08-15T19:42:47.512Z,52.90
2023-08-15T19:47:50.700Z,53.02
2023-08-15T19:52:54.434Z,53.23
2023-08-15T19:57:57.560Z,53.34
2023-08-15T20:03:01.610Z,53.32
2023-08-15T20:08:06.430Z,53.18
2023-08-15T20:13:09.747Z,53.08
2023-08-15T20:18:14.746Z,53.31
2023-08-15T20:23:18.566Z,53.41
2023-08-15T20:28:22.441Z,53.56
2023-08-15T20:33:26.476Z,55.68
2023-08-15T20:38:32.550Z,55.16
2023-08-15T20:43:35.984Z,54.91
2023-08-15T20:48:42.252Z,55.72
2023-08-15T20:53:48.432Z,56.02
2023-08-15T20:58:51.855Z,56.46
2023-08-15T21:03:55.776Z,56.35
2023-08-15T21:08:59.618Z,56.72
2023-08-15T21:14:05.476Z,56.90
2023-08-15T21:19:11.155Z,57.31
2023-08-15T21:24:16.310Z,57.45
2023-08-15T21:29:24.021Z,57.48
2023-08-15T21:34:28.360Z,57.72
2023-08-15T21:39:31.777Z,57.84
2023-08-15T21:44:35.000Z,58.06
2023-08-15T21:49:53.669Z,58.15
2023-08-15T21:55:00.875Z,58.47
2023-08-15T22:00:06.464Z,58.96
2023-08-15T22:05:11.829Z,59.34
2023-08-15T22:10:15.114Z,59.70
2023-08-15T22:15:19.911Z,59.25
2023-08-15T22:20:23.176Z,59.54
2023-08-15T22:25:26.486Z,59.85
2023-08-15T22:30:29.906Z,60.60
2023-08-15T22:35:43.437Z,60.90
2023-08-15T22:40:47.075Z,61.04
2023-08-15T22:45:50.320Z,61.20
2023-08-15T22:50:53.501Z,61.23
2023-08-15T22:56:01.572Z,61.09
2023-08-15T23:01:04.877Z,61.16
2023-08-15T23:06:08.081Z,61.81
2023-08-15T23:11:11.363Z,61.77
2023-08-15T23:16:14.491Z,61.60
2023-08-15T23:21:17.683Z,61.18
2023-08-15T23:26:20.797Z,61.43
2023-08-15T23:31:36.677Z,61.80
2023-08-15T23:36:40.039Z,62.22
2023-08-15T23:41:43.706Z,62.43
2023-08-15T23:46:48.895Z,62.53
2023-08-15T23:51:52.658Z,62.53
2023-08-15T23:56:55.833Z,62.56
